Time;durP1;ratioP1;P1;durP2;ratioP2;P2;SDS_P1;SDS_P2;PMS_P1;PMS_P2;Temp;Humidity;BMP_temperature;BMP_pressure;BME280_temperature;BME280_humidity;BME280_pressure;Samples;Min_cycle;Max_cycle;Signal;HPM_P1;HPM_P2
2022/10/08 00:00:29;;;;;;;;;10.50;10.50;;;;;;;;5254112;28;8927;-70
2022/10/08 00:03:00;;;;;;;;;6.67;6.67;;;;;;;;5288580;28;8781;-70
2022/10/08 00:05:31;;;;;;;;;6.75;6.75;;;;;;;;5289210;28;11433;-70
2022/10/08 00:08:02;;;;;;;;;3.00;3.00;;;;;;;;5271123;28;8814;-70
2022/10/08 00:10:33;;;;;;;;;6.50;6.50;;;;;;;;5270827;28;8930;-70
2022/10/08 00:13:04;;;;;;;;;12.50;12.50;;;;;;;;5270833;28;8788;-70
2022/10/08 00:15:35;;;;;;;;;19.00;19.00;;;;;;;;5237366;28;8784;-70
2022/10/08 00:18:07;;;;;;;;;18.25;17.25;;;;;;;;5254050;28;8802;-70
2022/10/08 00:20:38;;;;;;;;;23.00;20.50;;;;;;;;5270417;28;8788;-70
2022/10/08 00:23:09;;;;;;;;;20.80;18.80;;;;;;;;5271003;28;8824;-70
2022/10/08 00:25:43;;;;;;;;;29.20;28.80;;;;;;;;5270298;28;8942;-70
2022/10/08 00:28:14;;;;;;;;;57.80;47.20;;;;;;;;5270245;28;8804;-70
2022/10/08 00:30:45;;;;;;;;;44.60;39.20;;;;;;;;5289082;28;8903;-70
2022/10/08 00:33:16;;;;;;;;;17.00;16.50;;;;;;;;5270614;28;8824;-70
2022/10/08 00:35:47;;;;;;;;;14.25;14.25;;;;;;;;5270498;28;8787;-70
2022/10/08 00:38:37;;;;;;;;;3.50;3.50;;;;;;;;5287465;28;8764;-70
2022/10/08 00:41:23;;;;;;;;;3.00;3.00;;;;;;;;5288804;28;8760;-71
2022/10/08 00:43:59;;;;;;;;;3.00;3.00;;;;;;;;5270204;28;8792;-71
2022/10/08 00:46:33;;;;;;;;;3.75;3.75;;;;;;;;5269998;28;8808;-71
2022/10/08 00:49:09;;;;;;;;;9.00;9.00;;;;;;;;5252825;28;8785;-70
2022/10/08 00:51:43;;;;;;;;;8.50;8.50;;;;;;;;5270108;28;8748;-70
2022/10/08 00:54:14;;;;;;;;;13.50;13.50;;;;;;;;5270135;28;8765;-70
2022/10/08 00:56:51;;;;;;;;;9.50;9.50;;;;;;;;5253785;28;8765;-70
2022/10/08 00:59:40;;;;;;;;;13.25;13.25;;;;;;;;5272550;28;9462;-70
2022/10/08 01:02:30;;;;;;;;;4.75;4.75;;;;;;;;5288385;28;8784;-70
2022/10/08 01:05:03;;;;;;;;;7.75;7.75;;;;;;;;5270387;28;8800;-70
2022/10/08 01:08:22;;;;;;;;;13.25;13.25;;;;;;;;5273161;28;8831;-70
2022/10/08 01:11:08;;;;;;;;;26.40;26.20;;;;;;;;5252848;28;8803;-70
2022/10/08 01:13:48;;;;;;;;;18.25;18.25;;;;;;;;5269892;28;8772;-70
2022/10/08 01:16:25;;;;;;;;;18.60;18.60;;;;;;;;5236842;28;8779;-70
2022/10/08 01:18:59;;;;;;;;;10.50;10.00;;;;;;;;5287994;28;9522;-70
2022/10/08 01:21:38;;;;;;;;;9.75;9.25;;;;;;;;5269670;28;8801;-70
2022/10/08 01:24:21;;;;;;;;;12.00;12.00;;;;;;;;5270034;28;8772;-70
2022/10/08 01:27:22;;;;;;;;;15.50;15.50;;;;;;;;5287916;28;8824;-70
2022/10/08 01:29:54;;;;;;;;;6.00;6.00;;;;;;;;5269767;28;9714;-70
2022/10/08 01:32:33;;;;;;;;;3.50;3.50;;;;;;;;5269681;28;8819;-70
2022/10/08 01:35:09;;;;;;;;;4.25;4.25;;;;;;;;5247163;28;8787;-71
2022/10/08 01:38:01;;;;;;;;;3.00;3.00;;;;;;;;5258544;28;8780;-71
2022/10/08 01:40:37;;;;;;;;;2.00;2.00;;;;;;;;5269807;28;8784;-71
2022/10/08 01:43:10;;;;;;;;;3.00;3.00;;;;;;;;5288145;28;8783;-71
2022/10/08 01:45:44;;;;;;;;;3.00;3.00;;;;;;;;5287736;28;8999;-70
2022/10/08 01:48:20;;;;;;;;;6.00;6.00;;;;;;;;5273913;28;9514;-69
2022/10/08 01:51:14;;;;;;;;;4.00;4.00;;;;;;;;5276402;28;8776;-70
2022/10/08 01:53:47;;;;;;;;;2.00;2.00;;;;;;;;5273598;28;8784;-70
2022/10/08 01:56:21;;;;;;;;;4.50;4.50;;;;;;;;5273491;28;8776;-70
2022/10/08 01:59:11;;;;;;;;;2.25;2.25;;;;;;;;5273280;28;8788;-70
2022/10/08 02:01:50;;;;;;;;;5.00;5.00;;;;;;;;5273278;28;8780;-70
2022/10/08 02:04:40;;;;;;;;;7.75;7.75;;;;;;;;5276058;28;8866;-71
2022/10/08 02:07:15;;;;;;;;;2.00;2.00;;;;;;;;5256557;28;9954;-71
2022/10/08 02:09:50;;;;;;;;;4.00;4.00;;;;;;;;5256515;28;8768;-71
2022/10/08 02:12:24;;;;;;;;;2.00;2.00;;;;;;;;5272895;28;8816;-70
2022/10/08 02:14:56;;;;;;;;;7.50;7.50;;;;;;;;5291492;28;9511;-70
2022/10/08 02:17:36;;;;;;;;;7.75;7.75;;;;;;;;5272987;28;9549;-70
2022/10/08 02:20:30;;;;;;;;;5.00;5.00;;;;;;;;5256441;28;8791;-70
2022/10/08 02:23:14;;;;;;;;;20.50;20.00;;;;;;;;5275060;28;8788;-69
2022/10/08 02:25:48;;;;;;;;;9.00;9.00;;;;;;;;5272950;28;8820;-69
2022/10/08 02:28:38;;;;;;;;;6.25;6.25;;;;;;;;5272770;28;8808;-70
2022/10/08 02:31:09;;;;;;;;;3.25;3.25;;;;;;;;5268130;28;9556;-71
2022/10/08 02:33:47;;;;;;;;;16.25;16.25;;;;;;;;5266168;28;9509;-70
2022/10/08 02:36:22;;;;;;;;;10.00;10.00;;;;;;;;5253343;28;8798;-70
2022/10/08 02:38:58;;;;;;;;;5.50;5.50;;;;;;;;5239380;28;9565;-70
2022/10/08 02:41:31;;;;;;;;;2.00;2.00;;;;;;;;5291138;28;8791;-69
2022/10/08 02:44:06;;;;;;;;;2.25;2.25;;;;;;;;5272501;28;8772;-69
2022/10/08 02:46:39;;;;;;;;;2.00;2.00;;;;;;;;5272727;28;8997;-69
2022/10/08 02:49:16;;;;;;;;;1.00;1.00;;;;;;;;5272077;28;9564;-66
2022/10/08 02:51:48;;;;;;;;;1.50;1.50;;;;;;;;5239589;28;8791;-69
2022/10/08 02:54:22;;;;;;;;;1.00;1.00;;;;;;;;5272594;28;8772;-70
2022/10/08 02:56:59;;;;;;;;;0.00;0.00;;;;;;;;5271433;28;8792;-71
2022/10/08 02:59:32;;;;;;;;;2.50;2.50;;;;;;;;5271619;28;8769;-71
2022/10/08 03:02:04;;;;;;;;;1.50;1.50;;;;;;;;5271988;28;8815;-70
2022/10/08 03:04:44;;;;;;;;;3.75;3.75;;;;;;;;5272578;28;8791;-70
2022/10/08 03:07:16;;;;;;;;;4.00;4.00;;;;;;;;5238923;28;9653;-69
2022/10/08 03:09:50;;;;;;;;;2.25;2.25;;;;;;;;5267732;28;8798;-69
2022/10/08 03:12:21;;;;;;;;;1.50;1.50;;;;;;;;5286861;28;8843;-69
2022/10/08 03:14:53;;;;;;;;;2.00;2.00;;;;;;;;5271810;28;9615;-69
2022/10/08 03:17:29;;;;;;;;;1.00;1.00;;;;;;;;5272072;28;8787;-69
2022/10/08 03:20:02;;;;;;;;;2.75;2.75;;;;;;;;5272122;28;8773;-69
2022/10/08 03:22:34;;;;;;;;;2.00;2.00;;;;;;;;5255373;28;8793;-69
2022/10/08 03:25:05;;;;;;;;;5.00;5.00;;;;;;;;5271470;28;8807;-70
2022/10/08 03:27:36;;;;;;;;;4.00;4.00;;;;;;;;5288243;28;8855;-69
2022/10/08 03:30:08;;;;;;;;;5.00;5.00;;;;;;;;5284203;28;8819;-68
2022/10/08 03:32:39;;;;;;;;;5.00;5.00;;;;;;;;5250694;28;8792;-68
2022/10/08 03:35:29;;;;;;;;;4.00;4.00;;;;;;;;5260554;28;8829;-68
2022/10/08 03:38:00;;;;;;;;;5.00;5.00;;;;;;;;5246842;28;8803;-68
2022/10/08 03:40:53;;;;;;;;;10.25;10.25;;;;;;;;5246266;28;9502;-68
2022/10/08 03:43:29;;;;;;;;;6.25;6.25;;;;;;;;5229411;28;8786;-69
2022/10/08 03:46:01;;;;;;;;;7.25;7.25;;;;;;;;5248129;28;8803;-68
2022/10/08 03:48:50;;;;;;;;;8.50;8.50;;;;;;;;5249997;28;8791;-68
2022/10/08 03:51:22;;;;;;;;;2.00;2.00;;;;;;;;5267143;28;8813;-68
2022/10/08 03:54:12;;;;;;;;;5.00;5.00;;;;;;;;5245326;28;11398;-68
2022/10/08 03:56:43;;;;;;;;;3.00;3.00;;;;;;;;5247227;28;8795;-68
2022/10/08 03:59:14;;;;;;;;;4.00;4.00;;;;;;;;5229200;28;8799;-68
2022/10/08 04:02:03;;;;;;;;;2.00;2.00;;;;;;;;5246143;28;9498;-68
2022/10/08 04:04:34;;;;;;;;;3.00;3.00;;;;;;;;5212513;28;8795;-68
2022/10/08 04:07:05;;;;;;;;;11.33;11.33;;;;;;;;5249835;28;8824;-68
2022/10/08 04:09:36;;;;;;;;;5.50;5.00;;;;;;;;5249468;28;8861;-69
2022/10/08 04:12:27;;;;;;;;;8.25;8.00;;;;;;;;5265730;28;8780;-68
2022/10/08 04:14:58;;;;;;;;;11.75;11.00;;;;;;;;5266140;28;8801;-68
2022/10/08 04:17:29;;;;;;;;;3.75;3.75;;;;;;;;5268175;28;8796;-68
2022/10/08 04:20:18;;;;;;;;;6.50;6.50;;;;;;;;5266428;28;8797;-68
2022/10/08 04:23:08;;;;;;;;;4.25;4.25;;;;;;;;5267450;28;8808;-68
2022/10/08 04:25:47;;;;;;;;;3.00;3.00;;;;;;;;5266638;28;8808;-68
2022/10/08 04:28:21;;;;;;;;;1.50;1.50;;;;;;;;5273174;28;8807;-68
2022/10/08 04:30:59;;;;;;;;;3.00;3.00;;;;;;;;5288820;28;8932;-68
2022/10/08 04:33:31;;;;;;;;;3.00;2.50;;;;;;;;5252709;28;8868;-69
2022/10/08 04:36:07;;;;;;;;;3.50;3.50;;;;;;;;5269962;28;8777;-68
2022/10/08 04:38:38;;;;;;;;;2.00;2.00;;;;;;;;5270412;28;8784;-71
2022/10/08 04:41:13;;;;;;;;;1.00;1.00;;;;;;;;5288415;28;8866;-73
2022/10/08 04:43:45;;;;;;;;;1.50;1.50;;;;;;;;5270285;28;9473;-68
2022/10/08 04:46:34;;;;;;;;;1.00;1.00;;;;;;;;5264565;28;8971;-71
2022/10/08 04:49:05;;;;;;;;;1.75;1.75;;;;;;;;5273094;28;8911;-72
2022/10/08 04:51:36;;;;;;;;;8.75;8.75;;;;;;;;5286055;28;8823;-71
2022/10/08 04:54:07;;;;;;;;;5.25;5.25;;;;;;;;5286401;28;8772;-71
2022/10/08 04:56:57;;;;;;;;;5.00;5.00;;;;;;;;5286717;28;9529;-71
2022/10/08 04:59:28;;;;;;;;;2.00;2.00;;;;;;;;5268240;28;9490;-71
2022/10/08 05:01:59;;;;;;;;;0.00;0.00;;;;;;;;5235008;28;8784;-71
2022/10/08 05:04:30;;;;;;;;;4.00;4.00;;;;;;;;5286095;28;8839;-71
2022/10/08 05:07:01;;;;;;;;;0.00;0.00;;;;;;;;5251285;28;8885;-71
2022/10/08 05:09:32;;;;;;;;;4.00;4.00;;;;;;;;5251248;28;8792;-71
2022/10/08 05:12:03;;;;;;;;;5.50;5.50;;;;;;;;5263374;28;8819;-73
2022/10/08 05:14:34;;;;;;;;;2.00;2.00;;;;;;;;5265220;28;8813;-72
2022/10/08 05:17:06;;;;;;;;;4.25;4.25;;;;;;;;5247231;28;8802;-72
2022/10/08 05:19:37;;;;;;;;;2.75;2.75;;;;;;;;5264402;28;8918;-73
2022/10/08 05:22:08;;;;;;;;;1.00;1.00;;;;;;;;5288590;28;9073;-73
2022/10/08 05:24:39;;;;;;;;;2.25;2.25;;;;;;;;5238666;28;9523;-72
2022/10/08 05:27:10;;;;;;;;;0.00;0.00;;;;;;;;5272477;28;9534;-73
2022/10/08 05:29:41;;;;;;;;;0.00;0.00;;;;;;;;5267801;28;8814;-72
2022/10/08 05:32:12;;;;;;;;;0.00;0.00;;;;;;;;5269150;28;8789;-72
2022/10/08 05:34:43;;;;;;;;;1.00;1.00;;;;;;;;5234713;28;8846;-72
2022/10/08 05:37:14;;;;;;;;;6.00;6.00;;;;;;;;5229130;28;8815;-73
2022/10/08 05:39:46;;;;;;;;;4.50;4.50;;;;;;;;5272203;28;8861;-73
2022/10/08 05:42:17;;;;;;;;;2.25;2.25;;;;;;;;5238063;28;8797;-74
2022/10/08 05:44:48;;;;;;;;;1.00;1.00;;;;;;;;5267545;28;8794;-72
2022/10/08 05:47:19;;;;;;;;;3.00;3.00;;;;;;;;5288906;28;8865;-73
2022/10/08 05:49:50;;;;;;;;;2.00;2.00;;;;;;;;5267811;28;8836;-72
2022/10/08 05:52:21;;;;;;;;;2.50;2.50;;;;;;;;5236966;28;8901;-71
2022/10/08 05:54:52;;;;;;;;;1.00;1.00;;;;;;;;5273094;28;8793;-72
2022/10/08 05:57:23;;;;;;;;;5.00;5.00;;;;;;;;5273736;28;8777;-72
2022/10/08 05:59:54;;;;;;;;;2.00;2.00;;;;;;;;5256564;28;8780;-72
2022/10/08 06:02:43;;;;;;;;;0.75;0.75;;;;;;;;5275982;28;8795;-72
2022/10/08 06:05:14;;;;;;;;;1.00;1.00;;;;;;;;5270879;28;8780;-73
2022/10/08 06:07:45;;;;;;;;;1.00;1.00;;;;;;;;5255117;28;8793;-72
2022/10/08 06:10:17;;;;;;;;;3.00;3.00;;;;;;;;5255323;28;9520;-72
2022/10/08 06:12:48;;;;;;;;;3.00;3.00;;;;;;;;5235746;28;8779;-73
2022/10/08 06:15:20;;;;;;;;;2.00;2.00;;;;;;;;5235460;28;8788;-72
2022/10/08 06:17:51;;;;;;;;;2.00;2.00;;;;;;;;5235348;28;8784;-72
2022/10/08 06:20:22;;;;;;;;;3.00;2.75;;;;;;;;5270053;28;8780;-72
2022/10/08 06:22:53;;;;;;;;;5.50;5.50;;;;;;;;5223603;28;8832;-72
2022/10/08 06:25:24;;;;;;;;;5.00;5.00;;;;;;;;5288919;28;8815;-72
2022/10/08 06:27:55;;;;;;;;;7.50;7.50;;;;;;;;5274126;28;8783;-73
2022/10/08 06:30:26;;;;;;;;;2.75;2.75;;;;;;;;5234806;28;8869;-72
2022/10/08 06:32:57;;;;;;;;;0.50;0.00;;;;;;;;5234693;28;8782;-72
2022/10/08 06:35:29;;;;;;;;;0.00;0.00;;;;;;;;5252048;28;8794;-72
2022/10/08 06:38:00;;;;;;;;;1.00;1.00;;;;;;;;5231980;28;8807;-72
2022/10/08 06:40:50;;;;;;;;;3.25;3.25;;;;;;;;5251688;28;9544;-72
2022/10/08 06:43:21;;;;;;;;;1.00;1.00;;;;;;;;5235115;28;8768;-72
2022/10/08 06:45:52;;;;;;;;;0.00;0.00;;;;;;;;5237536;28;8829;-73
2022/10/08 06:48:23;;;;;;;;;2.00;2.00;;;;;;;;5251455;28;8840;-72
2022/10/08 06:51:17;;;;;;;;;2.00;2.00;;;;;;;;5254355;28;8810;-73
2022/10/08 06:53:53;;;;;;;;;2.50;2.50;;;;;;;;5272665;28;9507;-73
2022/10/08 06:56:24;;;;;;;;;1.25;1.25;;;;;;;;5255753;28;8784;-73
2022/10/08 06:58:57;;;;;;;;;1.00;1.00;;;;;;;;5290652;28;8862;-72
2022/10/08 07:01:29;;;;;;;;;0.25;0.25;;;;;;;;5255295;28;8784;-73
2022/10/08 07:04:00;;;;;;;;;1.00;1.00;;;;;;;;5272350;28;8773;-72
2022/10/08 07:06:32;;;;;;;;;1.00;1.00;;;;;;;;5238779;28;8808;-72
2022/10/08 07:09:25;;;;;;;;;1.00;1.00;;;;;;;;5250853;28;8798;-73
2022/10/08 07:12:14;;;;;;;;;5.25;5.25;;;;;;;;5237562;28;8775;-73
2022/10/08 07:14:46;;;;;;;;;2.75;2.75;;;;;;;;5250883;28;8798;-73
2022/10/08 07:17:17;;;;;;;;;5.50;5.50;;;;;;;;5250872;28;8908;-72
2022/10/08 07:20:07;;;;;;;;;4.00;4.00;;;;;;;;5268909;28;8758;-72
2022/10/08 07:22:38;;;;;;;;;4.00;4.00;;;;;;;;5250773;28;8794;-72
2022/10/08 07:25:09;;;;;;;;;4.00;4.00;;;;;;;;5250463;28;9543;-71
2022/10/08 07:27:59;;;;;;;;;0.00;0.00;;;;;;;;5279611;28;8788;-72
2022/10/08 07:30:31;;;;;;;;;3.00;3.00;;;;;;;;5247981;28;8927;-73
2022/10/08 07:33:05;;;;;;;;;2.50;2.50;;;;;;;;5262307;28;8794;-71
2022/10/08 07:35:54;;;;;;;;;6.50;6.50;;;;;;;;5251681;28;8786;-72
2022/10/08 07:38:44;;;;;;;;;7.50;7.50;;;;;;;;5263877;28;8787;-72
2022/10/08 07:41:15;;;;;;;;;3.00;3.00;;;;;;;;5236784;28;8812;-72
2022/10/08 07:43:49;;;;;;;;;3.00;3.00;;;;;;;;5270213;28;8918;-71
2022/10/08 07:46:22;;;;;;;;;3.00;3.00;;;;;;;;5271532;28;8824;-72
2022/10/08 07:48:55;;;;;;;;;4.50;4.50;;;;;;;;5273616;28;8788;-73
2022/10/08 07:51:27;;;;;;;;;3.50;3.50;;;;;;;;5253919;28;8923;-71
2022/10/08 07:53:58;;;;;;;;;2.00;2.00;;;;;;;;5270936;28;8768;-72
2022/10/08 07:56:30;;;;;;;;;3.25;3.25;;;;;;;;5288716;28;8788;-70
2022/10/08 07:59:02;;;;;;;;;4.00;4.00;;;;;;;;5270224;28;8768;-72
2022/10/08 08:01:34;;;;;;;;;2.75;2.75;;;;;;;;5270858;28;8787;-71
2022/10/08 08:04:06;;;;;;;;;3.25;3.25;;;;;;;;5270494;28;8784;-71
2022/10/08 08:06:55;;;;;;;;;2.00;2.00;;;;;;;;5288374;28;8877;-70
2022/10/08 08:09:26;;;;;;;;;2.00;2.00;;;;;;;;5270910;28;8781;-72
2022/10/08 08:11:57;;;;;;;;;2.00;2.00;;;;;;;;5270392;28;11180;-72
2022/10/08 08:14:28;;;;;;;;;4.25;4.25;;;;;;;;5265994;28;8917;-72
2022/10/08 08:16:58;;;;;;;;;4.67;4.33;;;;;;;;5229739;28;8803;-73
2022/10/08 08:19:29;;;;;;;;;4.50;4.50;;;;;;;;5235151;28;10311;-72
2022/10/08 08:22:00;;;;;;;;;2.00;2.00;;;;;;;;5270837;28;8961;-73
2022/10/08 08:24:31;;;;;;;;;2.25;2.25;;;;;;;;5257266;28;8813;-72
2022/10/08 08:27:02;;;;;;;;;3.00;3.00;;;;;;;;5267125;28;9660;-72
2022/10/08 08:29:54;;;;;;;;;1.00;1.00;;;;;;;;5252111;28;8877;-72
2022/10/08 08:32:25;;;;;;;;;3.25;3.25;;;;;;;;5232365;28;8904;-71
2022/10/08 08:34:56;;;;;;;;;4.00;4.00;;;;;;;;5250313;28;8891;-71
2022/10/08 08:37:27;;;;;;;;;3.50;3.50;;;;;;;;5258504;28;8836;-73
2022/10/08 08:39:58;;;;;;;;;5.75;5.25;;;;;;;;5249878;28;8767;-72
2022/10/08 08:42:47;;;;;;;;;2.00;2.00;;;;;;;;5249342;28;8786;-71
2022/10/08 08:45:26;;;;;;;;;3.25;3.25;;;;;;;;5246098;28;10099;-72
2022/10/08 08:48:17;;;;;;;;;0.00;0.00;;;;;;;;5269650;28;8979;-72
2022/10/08 08:50:49;;;;;;;;;3.00;2.75;;;;;;;;5269335;28;8788;-72
2022/10/08 08:53:21;;;;;;;;;5.75;5.75;;;;;;;;5236796;28;8796;-71
2022/10/08 08:56:13;;;;;;;;;3.00;3.00;;;;;;;;5271559;28;8804;-72
2022/10/08 08:59:04;;;;;;;;;2.50;2.50;;;;;;;;5269184;28;8792;-71
2022/10/08 09:01:38;;;;;;;;;6.25;6.25;;;;;;;;5265623;28;8791;-73
2022/10/08 09:04:20;;;;;;;;;4.50;4.50;;;;;;;;5276501;28;8795;-73
2022/10/08 09:07:12;;;;;;;;;6.00;6.00;;;;;;;;5266770;28;8945;-73
2022/10/08 09:10:05;;;;;;;;;4.75;4.75;;;;;;;;5267124;28;8910;-72
2022/10/08 09:12:37;;;;;;;;;9.25;9.25;;;;;;;;5232312;28;8776;-74
2022/10/08 09:15:19;;;;;;;;;6.50;6.50;;;;;;;;5231913;28;8886;-72
2022/10/08 09:17:51;;;;;;;;;6.50;6.50;;;;;;;;5269257;28;8788;-72
2022/10/08 09:20:24;;;;;;;;;2.00;2.00;;;;;;;;5269786;28;8868;-73
2022/10/08 09:22:56;;;;;;;;;2.00;2.00;;;;;;;;5236208;28;8827;-72
2022/10/08 09:25:30;;;;;;;;;2.50;2.50;;;;;;;;5235014;28;8777;-73
2022/10/08 09:28:03;;;;;;;;;2.00;2.00;;;;;;;;5231888;28;8813;-72
2022/10/08 09:30:39;;;;;;;;;2.00;2.00;;;;;;;;5266927;28;8778;-72
2022/10/08 09:33:15;;;;;;;;;3.75;3.75;;;;;;;;5232073;28;9501;-73
2022/10/08 09:35:47;;;;;;;;;7.50;7.50;;;;;;;;5231962;28;8791;-73
2022/10/08 09:38:21;;;;;;;;;4.00;4.00;;;;;;;;5248462;28;8798;-73
2022/10/08 09:41:19;;;;;;;;;2.00;2.00;;;;;;;;5248830;28;8804;-72
2022/10/08 09:44:08;;;;;;;;;2.00;2.00;;;;;;;;5279446;28;9475;-73
2022/10/08 09:46:39;;;;;;;;;1.25;1.25;;;;;;;;5269908;28;8806;-72
2022/10/08 09:49:27;;;;;;;;;2.75;2.75;;;;;;;;5252605;28;8903;-72
2022/10/08 09:52:00;;;;;;;;;3.75;3.75;;;;;;;;5252770;28;8818;-72
2022/10/08 09:54:34;;;;;;;;;3.00;3.00;;;;;;;;5265240;28;8860;-72
2022/10/08 09:57:06;;;;;;;;;2.00;2.00;;;;;;;;5269346;28;8793;-71
2022/10/08 09:59:40;;;;;;;;;2.00;2.00;;;;;;;;5269855;28;8802;-72
2022/10/08 10:02:41;;;;;;;;;3.00;3.00;;;;;;;;5278774;28;8773;-72
2022/10/08 10:05:20;;;;;;;;;5.50;5.50;;;;;;;;5254726;28;8777;-71
2022/10/08 10:07:51;;;;;;;;;2.50;2.50;;;;;;;;5269410;28;9555;-71
2022/10/08 10:10:39;;;;;;;;;2.75;2.75;;;;;;;;5254368;28;8865;-72
2022/10/08 10:13:37;;;;;;;;;4.00;4.00;;;;;;;;5289716;28;8845;-70
2022/10/08 10:16:17;;;;;;;;;5.75;5.75;;;;;;;;5237835;28;8796;-72
2022/10/08 10:19:29;;;;;;;;;20.50;19.50;;;;;;;;5289521;28;8796;-72
2022/10/08 10:22:03;;;;;;;;;12.50;12.25;;;;;;;;5271312;28;8808;-73
2022/10/08 10:24:37;;;;;;;;;12.25;12.25;;;;;;;;5271077;28;9619;-72
2022/10/08 10:27:12;;;;;;;;;13.00;13.00;;;;;;;;5254386;28;8803;-72
2022/10/08 10:29:47;;;;;;;;;23.50;22.75;;;;;;;;5262521;28;9004;-73
2022/10/08 10:32:37;;;;;;;;;19.25;18.50;;;;;;;;5233715;28;8924;-72
2022/10/08 10:35:19;;;;;;;;;15.50;15.50;;;;;;;;5248076;28;8822;-73
2022/10/08 10:37:52;;;;;;;;;18.25;18.25;;;;;;;;5235708;28;9494;-73
2022/10/08 10:40:31;;;;;;;;;11.50;11.50;;;;;;;;5262627;28;8819;-71
2022/10/08 10:43:02;;;;;;;;;10.50;10.50;;;;;;;;5275838;28;8818;-75
2022/10/08 10:45:36;;;;;;;;;10.00;10.00;;;;;;;;5277320;28;9661;-74
2022/10/08 10:48:08;;;;;;;;;9.75;9.75;;;;;;;;5239887;28;9268;-73
2022/10/08 10:50:49;;;;;;;;;11.75;10.50;;;;;;;;5255999;28;8800;-73
2022/10/08 10:53:23;;;;;;;;;6.50;6.50;;;;;;;;5258522;28;8802;-74
2022/10/08 10:55:57;;;;;;;;;7.25;7.25;;;;;;;;5228155;28;8796;-73
2022/10/08 10:58:37;;;;;;;;;9.25;9.25;;;;;;;;5256919;28;8794;-74
2022/10/08 11:01:11;;;;;;;;;12.00;11.00;;;;;;;;5256916;28;9509;-74
2022/10/08 11:04:10;;;;;;;;;12.50;11.50;;;;;;;;5258062;28;8819;-75
2022/10/08 11:07:02;;;;;;;;;15.00;15.00;;;;;;;;5261417;28;8832;-72
2022/10/08 11:09:56;;;;;;;;;10.50;10.25;;;;;;;;5240185;28;8816;-71
2022/10/08 11:12:35;;;;;;;;;9.75;9.75;;;;;;;;5233225;28;9566;-70
2022/10/08 11:15:22;;;;;;;;;10.00;10.00;;;;;;;;5239104;28;8835;-70
2022/10/08 11:17:56;;;;;;;;;3.00;3.00;;;;;;;;5258421;28;8820;-70
2022/10/08 11:20:32;;;;;;;;;8.00;8.00;;;;;;;;5223108;28;8806;-69
2022/10/08 11:23:09;;;;;;;;;3.25;3.25;;;;;;;;5264002;28;8838;-69
2022/10/08 11:26:04;;;;;;;;;8.00;7.75;;;;;;;;5260614;28;8835;-69
2022/10/08 11:29:15;;;;;;;;;7.00;7.00;;;;;;;;5250271;28;9566;-72
2022/10/08 11:31:48;;;;;;;;;9.25;9.25;;;;;;;;5269837;28;8914;-74
2022/10/08 11:34:21;;;;;;;;;6.25;6.25;;;;;;;;5248960;28;8806;-73
2022/10/08 11:37:05;;;;;;;;;8.00;8.00;;;;;;;;5260674;28;8826;-72
2022/10/08 11:39:51;;;;;;;;;11.00;11.00;;;;;;;;5269449;28;8792;-72
2022/10/08 11:42:29;;;;;;;;;9.00;9.00;;;;;;;;5285358;28;8777;-73
2022/10/08 11:45:21;;;;;;;;;12.25;12.25;;;;;;;;5286877;28;8776;-72
2022/10/08 11:48:30;;;;;;;;;17.00;16.50;;;;;;;;5258770;28;8805;-72
2022/10/08 11:51:26;;;;;;;;;26.00;26.00;;;;;;;;5286696;28;8772;-73
2022/10/08 11:54:16;;;;;;;;;27.40;27.00;;;;;;;;5289470;28;8868;-72
2022/10/08 11:57:11;;;;;;;;;30.40;28.60;;;;;;;;5269389;28;8788;-75
2022/10/08 11:59:45;;;;;;;;;20.00;20.00;;;;;;;;5282216;28;9487;-70
2022/10/08 12:02:19;;;;;;;;;18.25;18.25;;;;;;;;5279340;28;8788;-70
2022/10/08 12:04:51;;;;;;;;;21.50;21.50;;;;;;;;5262767;28;8853;-68
2022/10/08 12:07:25;;;;;;;;;15.75;15.75;;;;;;;;5258857;28;8807;-67
2022/10/08 12:10:02;;;;;;;;;12.00;12.00;;;;;;;;5260685;28;8825;-68
2022/10/08 12:12:48;;;;;;;;;9.50;9.25;;;;;;;;5263635;28;8771;-68
2022/10/08 12:15:39;;;;;;;;;8.25;8.00;;;;;;;;5246722;28;8805;-68
2022/10/08 12:18:29;;;;;;;;;10.50;10.50;;;;;;;;5252796;28;8807;-71
2022/10/08 12:21:15;;;;;;;;;11.00;10.25;;;;;;;;5269869;28;8780;-70
2022/10/08 12:23:46;;;;;;;;;12.25;12.25;;;;;;;;5270129;28;8916;-71
2022/10/08 12:26:17;;;;;;;;;11.00;11.00;;;;;;;;5285030;28;8824;-73
2022/10/08 12:28:49;;;;;;;;;22.67;21.67;;;;;;;;5264813;28;10731;-71
2022/10/08 12:31:40;;;;;;;;;17.25;17.25;;;;;;;;5256026;28;11439;-71
2022/10/08 12:34:18;;;;;;;;;17.00;15.50;;;;;;;;5288076;28;9596;-71
2022/10/08 12:37:12;;;;;;;;;22.25;22.25;;;;;;;;5268810;28;8812;-71
2022/10/08 12:39:44;;;;;;;;;16.50;16.00;;;;;;;;5276803;28;9615;-72
2022/10/08 12:42:21;;;;;;;;;20.00;19.50;;;;;;;;5265921;28;8798;-72
2022/10/08 12:44:57;;;;;;;;;21.00;21.00;;;;;;;;5281753;28;8797;-71
2022/10/08 12:47:48;;;;;;;;;25.20;24.60;;;;;;;;5265317;28;8782;-71
2022/10/08 12:50:22;;;;;;;;;24.00;20.25;;;;;;;;5252582;28;8769;-70
2022/10/08 12:52:53;;;;;;;;;15.75;15.25;;;;;;;;5287909;28;8769;-70
2022/10/08 12:55:24;;;;;;;;;15.50;15.50;;;;;;;;5265567;28;8825;-71
2022/10/08 12:58:15;;;;;;;;;11.50;11.50;;;;;;;;5254916;28;8816;-73
2022/10/08 13:00:55;;;;;;;;;10.75;10.75;;;;;;;;5233499;28;8791;-71
2022/10/08 13:03:26;;;;;;;;;10.75;10.75;;;;;;;;5267672;28;8988;-71
2022/10/08 13:06:25;;;;;;;;;10.00;10.00;;;;;;;;5287455;28;8831;-70
2022/10/08 13:08:56;;;;;;;;;10.00;10.00;;;;;;;;5253071;28;8792;-70
2022/10/08 13:11:27;;;;;;;;;10.33;10.33;;;;;;;;5269849;28;8772;-71
2022/10/08 13:14:27;;;;;;;;;9.00;9.00;;;;;;;;5265404;28;8779;-71
2022/10/08 13:16:57;;;;;;;;;9.00;8.00;;;;;;;;5249508;28;8805;-70
2022/10/08 13:19:36;;;;;;;;;7.50;7.50;;;;;;;;5264618;28;8784;-71
2022/10/08 13:22:23;;;;;;;;;9.25;9.25;;;;;;;;5269913;28;9542;-72
2022/10/08 13:24:54;;;;;;;;;8.00;8.00;;;;;;;;5253187;28;8785;-73
2022/10/08 13:27:25;;;;;;;;;10.00;10.00;;;;;;;;5271304;28;8812;-72
2022/10/08 13:29:57;;;;;;;;;8.25;8.25;;;;;;;;5288531;28;11504;-71
2022/10/08 13:32:30;;;;;;;;;8.75;8.75;;;;;;;;5253261;28;8772;-73
2022/10/08 13:35:03;;;;;;;;;8.75;8.25;;;;;;;;5269159;28;8812;-73
2022/10/08 13:37:36;;;;;;;;;12.25;12.25;;;;;;;;5287737;28;8784;-72
2022/10/08 13:40:09;;;;;;;;;11.25;11.00;;;;;;;;5274502;28;8795;-72
2022/10/08 13:42:49;;;;;;;;;27.75;27.00;;;;;;;;5250586;28;8770;-72
2022/10/08 13:45:23;;;;;;;;;16.25;16.25;;;;;;;;5271109;28;8806;-72
2022/10/08 13:47:54;;;;;;;;;8.75;8.75;;;;;;;;5270250;28;8838;-71
2022/10/08 13:50:48;;;;;;;;;10.00;9.75;;;;;;;;5291915;28;8860;-72
2022/10/08 13:53:21;;;;;;;;;11.00;10.25;;;;;;;;5273055;28;8796;-71
2022/10/08 13:55:52;;;;;;;;;9.50;8.75;;;;;;;;5291493;28;8866;-75
2022/10/08 13:58:23;;;;;;;;;8.25;8.25;;;;;;;;5273270;28;8788;-71
2022/10/08 14:00:53;;;;;;;;;9.67;9.67;;;;;;;;5273778;28;8910;-71
2022/10/08 14:03:43;;;;;;;;;8.00;8.00;;;;;;;;5267991;28;8790;-71
2022/10/08 14:06:14;;;;;;;;;9.75;9.75;;;;;;;;5268982;28;8866;-71
2022/10/08 14:08:45;;;;;;;;;8.00;8.00;;;;;;;;5249004;28;8787;-73
2022/10/08 14:11:34;;;;;;;;;9.50;9.50;;;;;;;;5268506;28;11457;-73
2022/10/08 14:14:06;;;;;;;;;9.25;9.25;;;;;;;;5250248;28;8798;-73
2022/10/08 14:16:36;;;;;;;;;8.25;8.25;;;;;;;;5268408;28;8821;-73
2022/10/08 14:19:08;;;;;;;;;8.67;8.67;;;;;;;;5265347;28;9494;-73
2022/10/08 14:21:39;;;;;;;;;5.00;5.00;;;;;;;;5271093;28;11453;-73
2022/10/08 14:24:11;;;;;;;;;13.75;11.25;;;;;;;;5268975;28;8776;-73
2022/10/08 14:26:42;;;;;;;;;11.00;11.00;;;;;;;;5270750;28;8816;-72
2022/10/08 14:29:12;;;;;;;;;9.75;9.75;;;;;;;;5289208;28;8876;-74
2022/10/08 14:31:44;;;;;;;;;11.00;11.00;;;;;;;;5288649;28;9601;-73
2022/10/08 14:34:14;;;;;;;;;10.00;10.00;;;;;;;;5288830;28;10535;-73
2022/10/08 14:36:46;;;;;;;;;10.33;10.33;;;;;;;;5268365;28;8791;-75
2022/10/08 14:39:17;;;;;;;;;10.00;9.25;;;;;;;;5260045;28;11589;-72
2022/10/08 14:41:48;;;;;;;;;11.00;11.00;;;;;;;;5267887;28;8908;-74
2022/10/08 14:44:21;;;;;;;;;12.00;11.50;;;;;;;;5281923;28;9552;-72
2022/10/08 14:46:52;;;;;;;;;16.00;16.00;;;;;;;;5288896;28;8824;-73
2022/10/08 14:49:23;;;;;;;;;15.00;15.00;;;;;;;;5271515;28;9529;-73
2022/10/08 14:52:12;;;;;;;;;12.00;12.00;;;;;;;;5274037;28;8812;-74
2022/10/08 14:54:43;;;;;;;;;14.33;14.00;;;;;;;;5288961;28;8776;-73
2022/10/08 14:57:13;;;;;;;;;18.67;18.00;;;;;;;;5261851;28;8814;-72
2022/10/08 14:59:44;;;;;;;;;10.67;10.67;;;;;;;;5260587;28;11509;-73
2022/10/08 15:02:15;;;;;;;;;11.33;11.33;;;;;;;;5265351;28;10958;-73
2022/10/08 15:04:46;;;;;;;;;15.00;14.00;;;;;;;;5266882;28;11492;-73
2022/10/08 15:07:17;;;;;;;;;14.00;14.00;;;;;;;;5267072;28;11492;-72
2022/10/08 15:09:48;;;;;;;;;14.00;13.00;;;;;;;;5232759;28;8798;-72
2022/10/08 15:12:19;;;;;;;;;13.25;13.25;;;;;;;;5249177;28;8783;-73
2022/10/08 15:14:50;;;;;;;;;11.25;11.25;;;;;;;;5248996;28;8956;-73
2022/10/08 15:17:21;;;;;;;;;13.00;13.00;;;;;;;;5258761;28;8934;-73
2022/10/08 15:19:52;;;;;;;;;11.67;11.67;;;;;;;;5269669;28;8788;-74
2022/10/08 15:22:23;;;;;;;;;12.67;12.33;;;;;;;;5285694;28;8905;-72
2022/10/08 15:24:56;;;;;;;;;12.67;12.67;;;;;;;;5265783;28;11200;-72
2022/10/08 15:27:30;;;;;;;;;9.25;9.25;;;;;;;;5264781;28;10848;-72
2022/10/08 15:30:19;;;;;;;;;15.25;14.00;;;;;;;;5263387;28;8819;-74
2022/10/08 15:32:50;;;;;;;;;12.25;12.25;;;;;;;;5287445;28;8784;-74
2022/10/08 15:35:21;;;;;;;;;17.00;17.00;;;;;;;;5287213;28;8835;-73
2022/10/08 15:37:52;;;;;;;;;14.75;14.00;;;;;;;;5265113;28;10047;-73
2022/10/08 15:40:23;;;;;;;;;13.67;13.67;;;;;;;;5284575;28;8780;-73
2022/10/08 15:43:13;;;;;;;;;17.25;17.00;;;;;;;;5285765;28;8820;-74
2022/10/08 15:45:44;;;;;;;;;7.33;7.33;;;;;;;;5257832;28;8796;-73